Time;durP1;ratioP1;P1;durP2;ratioP2;P2;SDS_P1;SDS_P2;PMS_P1;PMS_P2;Temp;Humidity;BMP_temperature;BMP_pressure;BME280_temperature;BME280_humidity;BME280_pressure;Samples;Min_cycle;Max_cycle;Signal;HPM_P1;HPM_P2
2022/10/14 00:02:02;;;;;;;50.70;16.13;;;13.00;87.90;;;;;;5090319;28;20112;-32
2022/10/14 00:04:28;;;;;;;66.72;16.38;;;13.00;87.90;;;;;;5090252;28;20083;-32
2022/10/14 00:06:55;;;;;;;29.15;15.05;;;13.00;87.90;;;;;;5094203;28;20028;-32
2022/10/14 00:09:20;;;;;;;60.65;16.45;;;13.00;87.90;;;;;;5093878;28;20084;-32
2022/10/14 00:11:46;;;;;;;59.42;16.38;;;13.10;87.90;;;;;;5075374;28;20118;-32
2022/10/14 00:14:18;;;;;;;34.00;15.27;;;13.00;87.80;;;;;;5093893;28;20578;-32
2022/10/14 00:16:45;;;;;;;58.53;16.08;;;13.00;87.90;;;;;;5094022;28;20024;-32
2022/10/14 00:19:12;;;;;;;33.13;15.38;;;13.00;87.90;;;;;;5093638;28;20016;-32
2022/10/14 00:21:40;;;;;;;48.35;16.30;;;13.00;87.90;;;;;;5093616;28;20135;-31
2022/10/14 00:24:06;;;;;;;41.28;14.70;;;13.00;87.90;;;;;;5093681;28;20039;-32
2022/10/14 00:26:35;;;;;;;81.35;14.80;;;13.00;87.90;;;;;;5093952;28;20020;-32
2022/10/14 00:29:03;;;;;;;44.78;14.65;;;13.00;87.90;;;;;;5093586;28;20444;-32
2022/10/14 00:31:29;;;;;;;44.95;13.63;;;13.00;87.90;;;;;;5075016;28;20020;-32
2022/10/14 00:33:55;;;;;;;69.68;15.05;;;13.00;87.90;;;;;;5093452;28;20109;-32
2022/10/14 00:36:23;;;;;;;61.55;15.55;;;12.90;87.90;;;;;;5093600;28;20050;-32
2022/10/14 00:38:50;;;;;;;82.63;14.80;;;12.90;87.90;;;;;;5093430;28;20028;-32
2022/10/14 00:41:42;;;;;;;53.42;15.05;;;12.90;87.90;;;;;;5093494;28;20095;-32
2022/10/14 00:44:27;;;;;;;49.70;14.57;;;12.90;87.90;;;;;;5089738;28;20159;-32
2022/10/14 00:46:53;;;;;;;48.70;13.20;;;12.90;88.00;;;;;;5093385;28;20032;-31
2022/10/14 00:49:32;;;;;;;29.50;13.27;;;12.90;88.00;;;;;;5093358;28;20026;-35
2022/10/14 00:52:00;;;;;;;47.75;12.50;;;12.90;88.10;;;;;;5093329;28;20028;-33
2022/10/14 00:54:36;;;;;;;44.28;13.30;;;12.90;88.00;;;;;;5093312;28;20034;-33
2022/10/14 00:57:02;;;;;;;83.53;13.18;;;12.90;88.00;;;;;;5093563;28;20024;-34
2022/10/14 00:59:28;;;;;;;42.60;13.55;;;12.90;88.10;;;;;;5093548;28;20024;-34
2022/10/14 01:01:53;;;;;;;52.28;14.90;;;12.90;88.10;;;;;;5092743;28;20028;-34
2022/10/14 01:04:19;;;;;;;63.00;15.23;;;12.90;88.10;;;;;;5092568;28;20044;-34
2022/10/14 01:07:29;;;;;;;73.57;16.27;;;12.90;88.10;;;;;;5092650;28;20376;-35
2022/10/14 01:10:03;;;;;;;76.53;14.55;;;12.90;88.10;;;;;;5092598;28;20031;-33
2022/10/14 01:13:05;;;;;;;52.85;13.98;;;12.90;88.10;;;;;;5092229;28;20527;-34
2022/10/14 01:15:45;;;;;;;66.82;13.40;;;12.90;88.20;;;;;;5092104;28;20406;-41
2022/10/14 01:18:23;;;;;;;49.22;13.27;;;12.80;88.20;;;;;;5091235;28;20028;-33
2022/10/14 01:21:10;;;;;;;70.80;13.70;;;12.80;88.20;;;;;;5092243;28;20112;-34
2022/10/14 01:24:04;;;;;;;68.45;13.20;;;12.80;88.20;;;;;;5092001;28;20051;-33
2022/10/14 01:27:12;;;;;;;61.42;13.35;;;12.80;88.20;;;;;;5091946;28;20050;-33
2022/10/14 01:30:04;;;;;;;74.65;13.27;;;12.80;88.30;;;;;;5092123;28;20100;-32
2022/10/14 01:32:37;;;;;;;83.30;12.50;;;12.70;88.20;;;;;;5092134;28;20107;-35
2022/10/14 01:35:17;;;;;;;32.70;11.13;;;12.70;88.30;;;;;;5092227;28;20217;-33
2022/10/14 01:38:00;;;;;;;73.78;13.05;;;12.70;88.30;;;;;;5091882;28;20028;-33
2022/10/14 01:40:46;;;;;;;77.13;11.83;;;12.70;88.40;;;;;;5091815;28;20016;-32
2022/10/14 01:43:13;;;;;;;57.15;11.77;;;12.70;88.40;;;;;;5092102;28;20281;-35
2022/10/14 01:45:42;;;;;;;55.03;11.23;;;12.70;88.40;;;;;;5091800;28;20047;-32
2022/10/14 01:48:10;;;;;;;36.85;10.73;;;12.60;88.30;;;;;;5073516;28;20020;-33
2022/10/14 01:50:38;;;;;;;47.38;12.05;;;12.70;88.50;;;;;;5091962;28;20031;-34
2022/10/14 01:53:09;;;;;;;36.50;11.73;;;12.70;88.40;;;;;;5091748;28;20073;-34
2022/10/14 01:55:39;;;;;;;45.97;12.85;;;12.70;88.40;;;;;;5091571;28;20024;-33
2022/10/14 01:58:06;;;;;;;34.13;12.38;;;12.70;88.40;;;;;;5091634;28;20483;-35
2022/10/14 02:00:32;;;;;;;36.28;11.98;;;12.70;88.40;;;;;;5091659;28;20092;-35
2022/10/14 02:02:58;;;;;;;29.80;12.20;;;12.70;88.40;;;;;;5091647;28;20134;-32
2022/10/14 02:05:36;;;;;;;47.97;12.32;;;12.70;88.40;;;;;;5091502;28;20435;-33
2022/10/14 02:08:18;;;;;;;37.10;12.32;;;12.70;88.40;;;;;;5091454;28;20024;-35
2022/10/14 02:11:07;;;;;;;38.83;12.77;;;12.70;88.30;;;;;;5091526;28;20420;-34
2022/10/14 02:14:29;;;;;;;50.83;12.32;;;12.70;88.30;;;;;;5091416;28;20031;-35
2022/10/14 02:17:08;;;;;;;37.17;11.75;;;12.70;88.30;;;;;;5008669;28;20037;-39
2022/10/14 02:20:19;;;;;;;44.17;12.65;;;12.60;88.30;;;;;;5008890;28;20042;-32
2022/10/14 02:22:50;;;;;;;73.20;13.00;;;12.60;88.30;;;;;;5079523;28;20098;-34
2022/10/14 02:25:20;;;;;;;65.95;12.68;;;12.60;88.30;;;;;;5091246;28;20024;-35
2022/10/14 02:27:48;;;;;;;40.55;12.25;;;12.60;88.40;;;;;;5090677;28;20028;-35
2022/10/14 02:30:15;;;;;;;27.90;11.65;;;12.60;88.30;;;;;;5091276;28;20340;-35
2022/10/14 02:32:42;;;;;;;26.42;11.48;;;12.60;88.40;;;;;;5091387;28;20016;-35
2022/10/14 02:35:10;;;;;;;36.25;11.95;;;12.60;89.00;;;;;;5091234;28;20106;-35
2022/10/14 02:37:37;;;;;;;36.28;12.10;;;12.60;88.40;;;;;;5091233;28;20134;-35
2022/10/14 02:40:43;;;;;;;31.65;11.55;;;12.70;88.40;;;;;;5091321;28;20020;-35
2022/10/14 02:43:10;;;;;;;34.67;11.63;;;12.70;88.40;;;;;;4989040;28;20031;-35
2022/10/14 02:45:40;;;;;;;21.95;11.63;;;12.70;88.40;;;;;;4989308;28;20018;-35
2022/10/14 02:48:06;;;;;;;24.35;12.27;;;12.70;88.40;;;;;;5042107;28;20038;-33
2022/10/14 02:50:32;;;;;;;30.15;12.80;;;12.70;88.40;;;;;;5090820;28;20028;-34
2022/10/14 02:52:58;;;;;;;26.58;12.25;;;12.70;88.30;;;;;;5090741;28;20359;-33
2022/10/14 02:55:23;;;;;;;23.52;12.82;;;12.70;88.40;;;;;;5090678;28;20436;-34
2022/10/14 02:57:49;;;;;;;24.17;12.70;;;12.70;88.30;;;;;;5090580;28;20031;-33
2022/10/14 03:00:15;;;;;;;24.58;13.07;;;12.70;88.40;;;;;;5090821;28;20539;-33
2022/10/14 03:02:41;;;;;;;26.35;12.68;;;12.70;88.40;;;;;;5090482;28;20344;-33
2022/10/14 03:05:07;;;;;;;23.73;12.38;;;12.70;88.40;;;;;;5072036;28;20052;-33
2022/10/14 03:07:33;;;;;;;25.05;13.13;;;12.70;88.40;;;;;;5090785;28;20024;-33
2022/10/14 03:09:58;;;;;;;33.08;12.80;;;12.70;88.40;;;;;;5090623;28;20016;-33
2022/10/14 03:12:25;;;;;;;31.05;12.80;;;12.70;88.40;;;;;;5090375;28;20020;-32
2022/10/14 03:14:50;;;;;;;31.67;13.63;;;12.70;88.30;;;;;;5090635;28;20387;-33
2022/10/14 03:17:16;;;;;;;31.30;13.60;;;12.70;88.40;;;;;;5090619;28;20108;-32
2022/10/14 03:19:42;;;;;;;32.50;13.95;;;12.70;88.40;;;;;;5090734;28;20046;-34
2022/10/14 03:22:07;;;;;;;33.63;14.32;;;12.70;88.40;;;;;;5090223;28;20028;-33
2022/10/14 03:24:33;;;;;;;34.45;14.25;;;12.80;88.50;;;;;;5090365;28;20051;-33
2022/10/14 03:26:58;;;;;;;38.65;15.23;;;12.70;88.40;;;;;;5090234;28;20012;-32
2022/10/14 03:29:24;;;;;;;32.65;13.90;;;12.70;88.40;;;;;;5090278;28;20021;-32
2022/10/14 03:31:49;;;;;;;37.65;14.55;;;12.80;88.40;;;;;;5090166;28;20024;-33
2022/10/14 03:34:15;;;;;;;40.40;13.85;;;12.80;88.50;;;;;;5090692;28;20024;-33
2022/10/14 03:36:41;;;;;;;32.15;14.30;;;12.80;88.50;;;;;;5090466;28;20020;-33
2022/10/14 03:39:08;;;;;;;34.42;15.50;;;12.80;88.50;;;;;;5090257;28;20020;-32
2022/10/14 03:41:33;;;;;;;34.03;14.23;;;12.80;88.50;;;;;;5093632;28;20016;-34
2022/10/14 03:43:59;;;;;;;35.15;14.35;;;12.80;88.50;;;;;;5094358;28;20027;-33
2022/10/14 03:46:24;;;;;;;39.83;14.38;;;12.80;88.50;;;;;;5094358;28;20031;-32
2022/10/14 03:48:51;;;;;;;34.83;15.10;;;12.80;88.50;;;;;;5093860;28;20115;-33
2022/10/14 03:51:16;;;;;;;33.65;14.20;;;12.80;88.40;;;;;;5094284;28;20016;-33
2022/10/14 03:53:42;;;;;;;33.85;14.93;;;12.80;88.50;;;;;;5094201;28;20031;-33
2022/10/14 03:56:07;;;;;;;34.63;15.60;;;12.80;88.50;;;;;;5093828;28;20035;-33
2022/10/14 03:58:33;;;;;;;33.30;14.88;;;12.80;88.50;;;;;;5093982;28;20016;-33
2022/10/14 04:00:58;;;;;;;32.13;15.18;;;12.80;88.60;;;;;;5093838;28;20103;-33
2022/10/14 04:03:24;;;;;;;37.33;15.23;;;12.80;88.60;;;;;;5093729;28;20031;-32
2022/10/14 04:05:49;;;;;;;32.22;16.17;;;12.80;88.60;;;;;;5093611;28;20043;-33
2022/10/14 04:08:15;;;;;;;35.42;16.10;;;12.80;88.50;;;;;;5094106;28;20027;-33
2022/10/14 04:10:40;;;;;;;34.05;15.73;;;12.80;88.50;;;;;;5093560;28;20016;-33
2022/10/14 04:13:06;;;;;;;33.42;15.00;;;12.80;88.50;;;;;;5093389;28;20027;-32
2022/10/14 04:15:33;;;;;;;32.03;15.32;;;12.80;88.50;;;;;;5093215;28;20024;-33
2022/10/14 04:17:59;;;;;;;39.05;14.80;;;12.80;88.50;;;;;;5074959;28;20031;-33
2022/10/14 04:20:24;;;;;;;30.30;15.63;;;12.80;88.50;;;;;;5093085;28;20028;-32
2022/10/14 04:22:50;;;;;;;33.03;16.40;;;12.80;88.60;;;;;;5092968;28;20048;-32
2022/10/14 04:25:16;;;;;;;36.83;16.08;;;12.80;88.60;;;;;;5093484;28;20132;-34
2022/10/14 04:27:41;;;;;;;33.78;15.25;;;12.80;88.50;;;;;;5093156;28;20505;-33
2022/10/14 04:30:08;;;;;;;28.05;15.25;;;12.80;88.50;;;;;;5074863;28;20018;-32
2022/10/14 04:32:34;;;;;;;34.60;15.75;;;12.80;88.50;;;;;;5093193;28;20056;-34
2022/10/14 04:34:59;;;;;;;28.52;15.20;;;12.90;88.60;;;;;;5093258;28;20419;-33
2022/10/14 04:37:25;;;;;;;29.67;16.25;;;12.90;88.60;;;;;;5093601;28;20040;-33
2022/10/14 04:39:50;;;;;;;36.78;15.02;;;12.90;89.20;;;;;;5092926;28;20047;-32
2022/10/14 04:42:16;;;;;;;32.88;15.82;;;12.90;88.60;;;;;;5092752;28;20107;-33
2022/10/14 04:44:41;;;;;;;30.60;15.32;;;12.90;88.50;;;;;;5093145;28;20020;-34
2022/10/14 04:47:07;;;;;;;30.27;15.85;;;12.90;88.60;;;;;;5093113;28;20425;-32
2022/10/14 04:49:32;;;;;;;36.13;16.25;;;12.90;89.20;;;;;;5092736;28;20055;-34
2022/10/14 04:51:58;;;;;;;30.90;16.10;;;12.90;88.60;;;;;;5092492;28;20423;-32
2022/10/14 04:54:24;;;;;;;30.90;16.08;;;12.90;88.60;;;;;;5092677;28;20506;-34
2022/10/14 04:56:49;;;;;;;35.92;17.13;;;12.90;88.60;;;;;;5092948;28;20058;-33
2022/10/14 04:59:15;;;;;;;34.60;16.80;;;12.90;88.60;;;;;;5074580;28;20024;-34
2022/10/14 05:01:40;;;;;;;35.58;17.95;;;12.90;88.60;;;;;;5092631;28;20020;-33
2022/10/14 05:04:06;;;;;;;36.25;17.15;;;12.90;88.60;;;;;;5092475;28;20479;-33
2022/10/14 05:06:31;;;;;;;33.47;17.38;;;12.90;88.60;;;;;;5092556;28;20045;-33
2022/10/14 05:08:57;;;;;;;30.25;17.17;;;12.90;88.60;;;;;;5092618;28;20024;-32
2022/10/14 05:11:23;;;;;;;30.63;16.33;;;12.90;88.60;;;;;;5092613;28;20021;-34
2022/10/14 05:13:48;;;;;;;34.22;17.50;;;13.00;88.60;;;;;;5092264;28;20105;-31
2022/10/14 05:16:14;;;;;;;34.13;16.38;;;12.90;88.60;;;;;;5092329;28;20052;-34
2022/10/14 05:18:39;;;;;;;33.30;17.35;;;12.90;88.60;;;;;;5092125;28;20126;-32
2022/10/14 05:21:05;;;;;;;31.35;17.30;;;13.00;88.70;;;;;;5092520;28;20555;-34
2022/10/14 05:23:30;;;;;;;33.83;18.25;;;13.00;88.60;;;;;;5091956;28;20479;-33
2022/10/14 05:25:56;;;;;;;32.45;17.60;;;13.00;88.60;;;;;;5092375;28;20031;-33
2022/10/14 05:28:22;;;;;;;36.95;17.63;;;13.00;88.60;;;;;;5091721;28;20099;-33
2022/10/14 05:30:47;;;;;;;41.88;19.40;;;13.00;88.60;;;;;;5092168;28;20031;-33
2022/10/14 05:33:13;;;;;;;38.05;19.27;;;13.00;88.60;;;;;;5092180;28;20095;-34
2022/10/14 05:35:38;;;;;;;35.03;17.67;;;13.00;88.70;;;;;;5091906;28;20028;-34
2022/10/14 05:38:04;;;;;;;34.28;18.20;;;13.00;88.60;;;;;;5091829;28;20110;-34
2022/10/14 05:40:30;;;;;;;35.22;17.05;;;13.00;88.60;;;;;;5091572;28;20028;-33
2022/10/14 05:42:56;;;;;;;35.55;18.73;;;13.10;88.70;;;;;;5092024;28;20047;-33
2022/10/14 05:45:22;;;;;;;34.88;18.05;;;13.10;89.40;;;;;;5091689;28;20131;-33
2022/10/14 05:47:47;;;;;;;34.00;18.42;;;13.00;88.70;;;;;;5091802;28;20447;-33
2022/10/14 05:50:13;;;;;;;36.38;18.80;;;13.10;88.70;;;;;;5091886;28;20024;-34
2022/10/14 05:52:39;;;;;;;31.33;17.95;;;13.10;88.70;;;;;;5091760;28;20023;-33
2022/10/14 05:55:07;;;;;;;34.92;18.52;;;13.10;88.70;;;;;;5091819;28;20541;-34
2022/10/14 05:57:33;;;;;;;35.67;18.02;;;13.20;88.70;;;;;;5091329;28;20031;-33
2022/10/14 06:00:03;;;;;;;36.75;19.05;;;13.20;88.70;;;;;;5091337;28;20016;-31
2022/10/14 06:02:30;;;;;;;38.38;18.15;;;13.20;88.70;;;;;;5090445;28;20024;-30
2022/10/14 06:04:55;;;;;;;35.22;18.70;;;13.20;88.70;;;;;;5091407;28;20090;-32
2022/10/14 06:07:21;;;;;;;33.65;18.25;;;13.20;88.80;;;;;;5091374;28;20325;-30
2022/10/14 06:09:46;;;;;;;36.30;18.40;;;13.20;88.70;;;;;;5091436;28;20510;-32
2022/10/14 06:12:12;;;;;;;32.30;17.73;;;13.30;88.80;;;;;;5091192;28;20032;-31
2022/10/14 06:14:38;;;;;;;33.45;18.15;;;13.30;88.80;;;;;;5091095;28;20028;-32
2022/10/14 06:17:04;;;;;;;33.88;18.13;;;13.30;88.80;;;;;;5091203;28;20035;-31
2022/10/14 06:19:31;;;;;;;30.15;17.75;;;13.30;88.80;;;;;;5091249;28;20024;-30
2022/10/14 06:21:57;;;;;;;39.38;17.77;;;13.30;88.80;;;;;;5091318;28;20497;-31
2022/10/14 06:24:22;;;;;;;31.02;17.65;;;13.30;88.80;;;;;;5091081;28;20024;-32
2022/10/14 06:26:48;;;;;;;33.58;17.52;;;13.40;88.90;;;;;;5091306;28;20024;-31
2022/10/14 06:29:15;;;;;;;29.10;17.38;;;13.40;88.90;;;;;;5091286;28;20497;-32
2022/10/14 06:31:40;;;;;;;27.45;16.15;;;13.40;88.90;;;;;;5090835;28;20073;-31
2022/10/14 06:34:06;;;;;;;30.52;18.05;;;13.40;89.00;;;;;;5091131;28;20499;-30
2022/10/14 06:36:32;;;;;;;27.83;16.52;;;13.40;88.90;;;;;;5090825;28;20051;-32
2022/10/14 06:38:58;;;;;;;27.58;16.52;;;13.50;89.00;;;;;;5090975;28;20046;-32
2022/10/14 06:41:23;;;;;;;28.25;17.08;;;13.50;89.10;;;;;;5090915;28;20479;-32
2022/10/14 06:43:49;;;;;;;27.42;16.75;;;13.50;89.70;;;;;;5091214;28;20020;-32
2022/10/14 06:46:14;;;;;;;30.90;16.98;;;13.50;89.10;;;;;;5090907;28;20044;-32
2022/10/14 06:48:40;;;;;;;25.02;16.27;;;13.50;89.10;;;;;;5091202;28;20069;-32
2022/10/14 06:51:06;;;;;;;23.25;15.27;;;13.50;89.10;;;;;;5090871;28;20016;-32
2022/10/14 06:53:31;;;;;;;25.55;16.17;;;13.60;89.20;;;;;;5090841;28;20059;-31
2022/10/14 06:56:02;;;;;;;19.88;13.48;;;13.60;89.20;;;;;;5091136;28;20042;-34
2022/10/14 06:58:28;;;;;;;19.05;14.07;;;13.60;89.20;;;;;;5090954;28;20562;-27
2022/10/14 07:00:54;;;;;;;17.88;12.95;;;13.60;89.20;;;;;;5090813;28;20110;-31
2022/10/14 07:03:20;;;;;;;18.60;13.60;;;13.60;89.20;;;;;;5090729;28;20046;-34
2022/10/14 07:05:45;;;;;;;14.88;11.43;;;13.60;89.30;;;;;;5090582;28;20094;-30
2022/10/14 07:08:11;;;;;;;14.18;11.27;;;13.70;89.20;;;;;;5090585;28;20096;-30
2022/10/14 07:10:36;;;;;;;17.70;12.63;;;13.70;89.20;;;;;;5072268;28;20031;-27
2022/10/14 07:13:02;;;;;;;16.17;12.13;;;13.70;89.30;;;;;;5090596;28;20381;-30
2022/10/14 07:15:28;;;;;;;14.32;10.90;;;13.70;89.30;;;;;;5093954;28;20467;-29
2022/10/14 07:17:53;;;;;;;14.18;10.95;;;13.70;89.30;;;;;;5094847;28;20095;-31
2022/10/14 07:20:19;;;;;;;10.15;8.30;;;13.80;89.40;;;;;;5094833;28;20020;-29
2022/10/14 07:22:44;;;;;;;14.18;9.80;;;13.80;89.40;;;;;;5094828;28;20074;-30
2022/10/14 07:25:10;;;;;;;11.30;8.90;;;13.80;89.30;;;;;;5094979;28;20024;-32
2022/10/14 07:27:36;;;;;;;12.60;10.05;;;13.90;89.40;;;;;;5076683;28;20380;-29
2022/10/14 07:30:03;;;;;;;20.40;11.57;;;13.90;89.40;;;;;;5095063;28;20020;-32
2022/10/14 07:32:28;;;;;;;14.32;10.85;;;13.90;89.40;;;;;;5094611;28;20065;-31
2022/10/14 07:34:54;;;;;;;9.52;7.13;;;13.90;89.50;;;;;;5094953;28;20436;-31
2022/10/14 07:37:20;;;;;;;13.23;8.98;;;13.90;89.30;;;;;;5094478;28;20494;-30
2022/10/14 07:39:45;;;;;;;11.80;8.88;;;14.00;89.20;;;;;;5094530;28;20036;-26
2022/10/14 07:42:11;;;;;;;11.63;9.48;;;14.00;89.20;;;;;;5094227;28;20024;-31
2022/10/14 07:44:38;;;;;;;12.93;8.77;;;14.00;89.30;;;;;;5094420;28;20472;-26
2022/10/14 07:47:05;;;;;;;11.98;9.20;;;14.00;89.40;;;;;;5094461;28;20023;-35
2022/10/14 07:49:31;;;;;;;10.75;8.27;;;14.00;89.40;;;;;;5094432;28;20376;-30
2022/10/14 07:51:57;;;;;;;9.23;7.32;;;14.10;89.60;;;;;;5094293;28;20058;-27
2022/10/14 07:54:25;;;;;;;8.70;7.20;;;14.10;89.50;;;;;;5094321;28;20384;-27
2022/10/14 07:56:51;;;;;;;9.25;7.68;;;14.10;89.40;;;;;;5094617;28;20074;-29
2022/10/14 07:59:19;;;;;;;11.68;8.27;;;14.10;89.30;;;;;;5094365;28;20279;-27
2022/10/14 08:01:46;;;;;;;9.15;7.65;;;14.10;89.30;;;;;;5094180;28;20539;-28
2022/10/14 08:04:12;;;;;;;10.32;7.97;;;14.10;89.30;;;;;;5094355;28;20381;-28
2022/10/14 08:06:37;;;;;;;9.35;7.55;;;14.20;89.50;;;;;;5094523;28;20099;-28
2022/10/14 08:09:04;;;;;;;8.90;7.60;;;14.10;89.50;;;;;;5075727;28;20499;-28
2022/10/14 08:11:30;;;;;;;7.97;6.55;;;14.20;89.60;;;;;;5093879;28;20027;-26
2022/10/14 08:13:57;;;;;;;7.07;6.38;;;14.20;89.50;;;;;;5094035;28;20028;-28
2022/10/14 08:16:28;;;;;;;7.60;6.70;;;14.30;89.50;;;;;;5093824;28;20036;-28
2022/10/14 08:18:59;;;;;;;7.15;6.22;;;14.30;89.50;;;;;;5094167;28;20389;-28
2022/10/14 08:21:25;;;;;;;7.22;6.50;;;14.30;89.50;;;;;;5075429;28;20110;-31
2022/10/14 08:23:52;;;;;;;7.20;6.50;;;14.40;89.60;;;;;;5093832;28;20426;-29
2022/10/14 08:26:19;;;;;;;6.88;6.18;;;14.30;89.60;;;;;;5093237;28;20028;-34
2022/10/14 08:28:44;;;;;;;6.78;5.97;;;14.30;89.50;;;;;;5093503;28;20024;-31
2022/10/14 08:31:10;;;;;;;6.00;5.40;;;14.40;89.40;;;;;;5093742;28;20353;-29
2022/10/14 08:33:35;;;;;;;6.45;5.82;;;14.40;89.50;;;;;;5093557;28;20024;-28
2022/10/14 08:36:01;;;;;;;5.95;5.32;;;14.40;89.60;;;;;;5093553;28;20379;-33
2022/10/14 08:38:27;;;;;;;6.07;5.30;;;14.50;89.40;;;;;;5093358;28;20031;-29
2022/10/14 08:41:11;;;;;;;7.18;6.47;;;14.50;90.00;;;;;;5093325;28;20028;-28
2022/10/14 08:43:52;;;;;;;7.20;6.38;;;14.50;89.60;;;;;;5093377;28;20031;-25
2022/10/14 08:46:32;;;;;;;7.10;6.40;;;14.50;89.60;;;;;;5093291;28;20051;-30
2022/10/14 08:49:10;;;;;;;7.85;6.47;;;14.60;89.70;;;;;;5093349;28;20081;-30
2022/10/14 08:51:37;;;;;;;6.97;6.22;;;14.60;89.80;;;;;;5093186;28;20186;-25
2022/10/14 08:54:08;;;;;;;7.60;6.80;;;14.60;89.80;;;;;;5093456;28;20028;-26
2022/10/14 08:56:36;;;;;;;7.28;6.57;;;14.60;89.90;;;;;;5093310;28;20388;-26
2022/10/14 08:59:10;;;;;;;7.05;5.45;;;14.60;89.90;;;;;;5093446;28;20044;-25
2022/10/14 09:01:46;;;;;;;7.60;6.55;;;14.60;89.90;;;;;;5092856;28;20088;-26
2022/10/14 09:04:13;;;;;;;6.88;5.88;;;14.70;89.90;;;;;;5092871;28;20499;-26
2022/10/14 09:06:43;;;;;;;7.00;6.35;;;14.70;89.90;;;;;;5092627;28;20096;-25
2022/10/14 09:09:17;;;;;;;7.72;6.93;;;14.70;89.90;;;;;;5092798;28;20039;-26
2022/10/14 09:11:47;;;;;;;8.85;6.30;;;14.70;90.00;;;;;;5092475;28;20031;-28
2022/10/14 09:14:18;;;;;;;6.53;5.93;;;14.80;90.00;;;;;;5092651;28;20028;-27
2022/10/14 09:16:46;;;;;;;6.82;6.10;;;14.80;90.00;;;;;;5092834;28;20040;-25
2022/10/14 09:19:28;;;;;;;7.00;5.60;;;14.80;90.00;;;;;;5092522;28;20229;-26
2022/10/14 09:21:54;;;;;;;8.00;5.68;;;14.80;90.00;;;;;;5092522;28;20104;-27
2022/10/14 09:24:27;;;;;;;6.57;5.88;;;14.80;90.00;;;;;;5092512;28;20016;-36
2022/10/14 09:27:02;;;;;;;5.60;5.00;;;14.80;90.00;;;;;;5092191;28;20069;-27
2022/10/14 09:29:31;;;;;;;6.18;5.57;;;14.90;90.00;;;;;;5092172;28;20454;-25
2022/10/14 09:32:11;;;;;;;5.85;4.72;;;14.90;90.00;;;;;;5092071;28;20047;-25
2022/10/14 09:34:46;;;;;;;6.00;5.50;;;14.90;90.00;;;;;;5092031;28;20288;-25
2022/10/14 09:37:20;;;;;;;5.95;5.18;;;14.90;89.90;;;;;;5091455;28;20105;-26
2022/10/14 09:39:47;;;;;;;6.30;5.70;;;14.90;89.90;;;;;;5091920;28;20020;-30
2022/10/14 09:42:19;;;;;;;5.65;5.10;;;14.90;90.00;;;;;;5092227;28;20332;-27
2022/10/14 09:45:01;;;;;;;5.85;5.35;;;14.90;90.00;;;;;;5091918;28;20027;-26
2022/10/14 09:47:28;;;;;;;5.35;4.85;;;15.00;90.00;;;;;;5073760;28;20020;-25
2022/10/14 09:49:55;;;;;;;6.00;5.07;;;15.00;90.30;;;;;;5091927;28;20059;-26
2022/10/14 09:52:23;;;;;;;6.57;5.47;;;15.00;90.00;;;;;;5092262;28;20391;-30
2022/10/14 09:54:54;;;;;;;6.30;4.78;;;15.00;90.00;;;;;;5091704;28;20475;-27
2022/10/14 09:57:20;;;;;;;5.90;5.30;;;15.10;90.00;;;;;;5091935;28;20020;-25
2022/10/14 09:59:59;;;;;;;5.88;5.32;;;15.10;90.00;;;;;;5068174;28;20415;-25
2022/10/14 10:02:40;;;;;;;5.03;4.35;;;15.20;90.10;;;;;;5068199;28;20381;-25
2022/10/14 10:05:33;;;;;;;5.20;4.70;;;15.20;90.00;;;;;;5068468;28;20044;-25
2022/10/14 10:08:00;;;;;;;5.63;5.03;;;15.30;90.00;;;;;;5067103;28;20068;-24
2022/10/14 10:10:29;;;;;;;5.95;5.00;;;15.30;90.00;;;;;;5068359;28;20263;-26
2022/10/14 10:12:56;;;;;;;5.85;4.90;;;15.30;90.00;;;;;;5068240;28;20561;-26
2022/10/14 10:15:21;;;;;;;6.88;5.18;;;15.40;90.10;;;;;;5068093;28;20107;-26
2022/10/14 10:17:48;;;;;;;5.45;4.90;;;15.40;90.10;;;;;;5067883;28;20041;-24
2022/10/14 10:20:15;;;;;;;5.18;4.68;;;15.40;90.10;;;;;;5068102;28;20049;-26
2022/10/14 10:22:41;;;;;;;6.50;4.65;;;15.40;90.10;;;;;;5067708;28;20021;-26
2022/10/14 10:25:07;;;;;;;5.25;4.75;;;15.40;90.00;;;;;;5067473;28;20063;-25
2022/10/14 10:27:44;;;;;;;5.25;4.75;;;15.40;90.00;;;;;;5067662;28;20072;-27
2022/10/14 10:30:31;;;;;;;5.43;4.93;;;15.50;90.10;;;;;;5067759;28;20064;-25
2022/10/14 10:33:52;;;;;;;5.25;4.20;;;15.40;90.00;;;;;;5067674;28;20017;-26
2022/10/14 10:36:36;;;;;;;5.10;4.60;;;15.40;90.00;;;;;;5044851;28;20034;-26
2022/10/14 10:39:15;;;;;;;5.95;4.60;;;15.40;89.90;;;;;;5065567;28;20051;-29
2022/10/14 10:42:19;;;;;;;6.20;4.95;;;15.50;90.00;;;;;;5067391;28;20326;-27
2022/10/14 10:45:19;;;;;;;4.88;4.38;;;15.60;90.00;;;;;;5067854;28;20028;-35
2022/10/14 10:48:06;;;;;;;5.20;4.72;;;15.70;90.00;;;;;;5067160;28;20033;-25
2022/10/14 10:50:56;;;;;;;5.22;4.72;;;15.70;89.90;;;;;;5067054;28;20035;-29
2022/10/14 10:53:49;;;;;;;4.80;4.25;;;15.70;89.80;;;;;;5067061;28;20032;-28
2022/10/14 10:56:47;;;;;;;5.03;4.60;;;15.80;89.80;;;;;;5067513;28;20029;-26
2022/10/14 10:59:32;;;;;;;4.93;4.53;;;15.80;89.70;;;;;;5067045;28;20041;-27
2022/10/14 11:01:58;;;;;;;4.97;3.58;;;15.90;89.50;;;;;;5067179;28;20444;-25
2022/10/14 11:04:31;;;;;;;5.18;4.68;;;15.90;89.50;;;;;;5067188;28;20103;-25
2022/10/14 11:13:04;;;;;;;4.70;3.95;;;16.10;89.30;;;;;;5053753;28;19916;-26
2022/10/14 11:15:44;;;;;;;5.43;4.30;;;16.10;89.10;;;;;;5053339;28;20029;-25
2022/10/14 11:18:29;;;;;;;4.50;4.10;;;16.10;89.10;;;;;;5053159;28;20033;-26
2022/10/14 11:21:13;;;;;;;5.30;3.42;;;16.10;89.00;;;;;;5053203;28;20071;-24
2022/10/14 11:23:47;;;;;;;4.28;3.88;;;16.10;88.80;;;;;;5053356;28;20056;-26
2022/10/14 11:26:31;;;;;;;;;;;16.10;88.90;;;;;;5053793;28;20037;-27
2022/10/14 11:29:08;;;;;;;4.30;3.90;;;16.00;89.00;;;;;;5053086;28;19957;-24
2022/10/14 11:31:53;;;;;;;4.45;4.05;;;16.00;89.00;;;;;;5052851;28;20090;-28
2022/10/14 11:34:27;;;;;;;4.40;4.00;;;16.00;89.10;;;;;;5052985;28;20025;-25
2022/10/14 11:37:09;;;;;;;4.15;3.75;;;16.00;89.30;;;;;;5052936;28;20115;-25
2022/10/14 11:39:48;;;;;;;4.22;3.80;;;16.00;89.40;;;;;;5052827;28;20037;-26
2022/10/14 11:42:31;;;;;;;5.40;4.57;;;16.00;89.30;;;;;;5051556;28;20098;-26
2022/10/14 11:45:17;;;;;;;5.03;4.32;;;16.00;89.40;;;;;;5053046;28;20504;-28
2022/10/14 11:47:46;;;;;;;5.32;4.18;;;16.00;89.20;;;;;;5053011;28;20098;-27
2022/10/14 11:50:28;;;;;;;4.82;4.35;;;15.90;89.30;;;;;;5053266;28;20477;-24
2022/10/14 11:52:53;;;;;;;5.60;4.00;;;15.90;89.40;;;;;;5053159;28;20044;-27
2022/10/14 11:55:22;;;;;;;3.92;3.63;;;15.90;89.40;;;;;;5052822;28;20025;-25
2022/10/14 11:58:04;;;;;;;4.70;3.83;;;16.00;89.40;;;;;;5051123;28;20512;-26
2022/10/14 12:00:32;;;;;;;4.45;3.80;;;16.00;89.40;;;;;;5052917;28;20097;-27
2022/10/14 12:03:01;;;;;;;4.10;3.72;;;15.90;89.40;;;;;;5052687;28;20021;-24
2022/10/14 12:05:33;;;;;;;4.18;3.83;;;16.00;89.40;;;;;;5052579;28;20380;-25
2022/10/14 12:08:29;;;;;;;5.25;3.92;;;16.00;89.50;;;;;;5052421;28;20090;-27
2022/10/14 12:11:01;;;;;;;4.35;3.92;;;16.00;89.60;;;;;;5052537;28;20036;-26
2022/10/14 12:13:43;;;;;;;4.25;3.95;;;16.00;89.70;;;;;;5052608;28;20028;-27
2022/10/14 12:16:14;;;;;;;4.50;4.10;;;16.00;89.80;;;;;;5052794;28;20449;-32
2022/10/14 12:18:41;;;;;;;4.32;4.00;;;16.00;89.80;;;;;;5052307;28;20032;-27
2022/10/14 12:21:18;;;;;;;4.72;3.58;;;16.00;89.90;;;;;;5051795;28;20040;-28
2022/10/14 12:24:03;;;;;;;4.28;3.88;;;16.00;89.90;;;;;;5052264;28;20029;-27
2022/10/14 12:26:45;;;;;;;4.00;3.60;;;16.00;90.00;;;;;;5052459;28;20480;-27
2022/10/14 12:29:14;;;;;;;3.90;3.60;;;16.00;90.00;;;;;;5052340;28;20045;-29
2022/10/14 12:31:40;;;;;;;3.97;3.58;;;16.00;90.10;;;;;;5052420;28;20492;-27
2022/10/14 12:34:16;;;;;;;3.25;2.95;;;16.00;90.10;;;;;;5052745;28;20032;-26
2022/10/14 12:36:47;;;;;;;3.70;3.40;;;16.00;90.10;;;;;;5052315;28;20119;-26
2022/10/14 12:39:16;;;;;;;3.15;2.88;;;16.00;90.10;;;;;;5052512;28;20056;-30
2022/10/14 12:41:54;;;;;;;3.50;3.17;;;16.00;90.10;;;;;;5052110;28;20036;-27
2022/10/14 12:44:22;;;;;;;3.03;2.80;;;16.00;90.10;;;;;;5052072;28;20025;-27
2022/10/14 12:46:51;;;;;;;2.88;2.67;;;16.00;90.20;;;;;;5052354;28;20503;-28
2022/10/14 12:49:27;;;;;;;4.97;2.83;;;16.10;90.20;;;;;;5051934;28;20112;-26
2022/10/14 12:52:03;;;;;;;2.88;2.45;;;16.10;90.20;;;;;;5050489;28;20033;-29
2022/10/14 12:54:30;;;;;;;2.70;2.33;;;16.20;90.20;;;;;;5051907;28;20029;-29
2022/10/14 12:57:05;;;;;;;2.40;2.20;;;16.20;90.10;;;;;;5051787;28;20484;-28
2022/10/14 12:59:36;;;;;;;3.00;1.92;;;16.20;90.00;;;;;;5051409;28;20083;-27
2022/10/14 13:02:14;;;;;;;2.95;2.20;;;16.20;90.00;;;;;;5051599;28;20461;-26